Time;durP1;ratioP1;P1;durP2;ratioP2;P2;SDS_P1;SDS_P2;PMS_P1;PMS_P2;Temp;Humidity;BMP_temperature;BMP_pressure;BME280_temperature;BME280_humidity;BME280_pressure;Samples;Min_cycle;Max_cycle;Signal;HPM_P1;HPM_P2
2024/01/05 00:00:56;;;;;;;10.00;5.35;;;3.50;99.90;;;;;;5012418;28;20061;-65
2024/01/05 00:03:27;;;;;;;12.82;4.00;;;3.60;99.90;;;;;;5011528;28;20047;-66
2024/01/05 00:05:54;;;;;;;16.15;9.88;;;3.50;99.90;;;;;;5013016;28;20045;-65
2024/01/05 00:08:26;;;;;;;8.18;4.07;;;3.50;99.90;;;;;;5014924;28;20536;-65
2024/01/05 00:10:52;;;;;;;7.95;2.63;;;3.40;99.90;;;;;;5018908;28;20053;-65
2024/01/05 00:13:24;;;;;;;5.65;2.40;;;3.40;99.90;;;;;;5018015;28;20038;-65
2024/01/05 00:15:56;;;;;;;4.18;1.67;;;3.40;99.90;;;;;;5018906;28;20490;-65
2024/01/05 00:18:28;;;;;;;8.35;2.20;;;3.40;99.90;;;;;;5015909;28;20064;-65
2024/01/05 00:21:00;;;;;;;3.33;1.85;;;3.40;99.90;;;;;;5025995;28;20057;-65
2024/01/05 00:23:27;;;;;;;6.45;2.10;;;3.40;99.90;;;;;;5015332;28;20041;-65
2024/01/05 00:26:03;;;;;;;7.30;2.60;;;3.50;99.90;;;;;;5010466;28;20049;-65
2024/01/05 00:28:35;;;;;;;5.18;2.28;;;3.50;99.90;;;;;;5010047;28;20044;-66
2024/01/05 00:31:14;;;;;;;8.20;2.90;;;3.50;99.90;;;;;;5010662;28;20503;-65
2024/01/05 00:33:46;;;;;;;4.25;1.77;;;3.50;99.90;;;;;;5016127;28;20040;-65
2024/01/05 00:36:13;;;;;;;2.97;2.03;;;3.50;99.90;;;;;;5019119;28;20042;-65
2024/01/05 00:38:47;;;;;;;4.22;2.15;;;3.50;99.90;;;;;;5017085;28;20048;-65
2024/01/05 00:41:19;;;;;;;2.92;1.60;;;3.40;99.90;;;;;;5017752;28;20033;-65
2024/01/05 00:43:51;;;;;;;8.30;1.67;;;3.40;99.90;;;;;;5018311;28;20104;-66
2024/01/05 00:46:23;;;;;;;6.03;1.85;;;3.40;99.90;;;;;;5021941;28;20053;-65
2024/01/05 00:48:50;;;;;;;7.53;2.00;;;3.40;99.90;;;;;;5016477;28;20080;-65
2024/01/05 00:51:17;;;;;;;4.43;1.63;;;3.40;99.90;;;;;;5024170;28;20045;-65
2024/01/05 00:53:49;;;;;;;5.10;1.80;;;3.40;99.90;;;;;;5015039;28;20038;-65
2024/01/05 00:56:21;;;;;;;5.30;2.30;;;3.40;99.90;;;;;;5013913;28;20498;-66
2024/01/05 00:58:53;;;;;;;5.35;3.15;;;3.40;99.90;;;;;;5018164;28;20052;-65
2024/01/05 01:01:25;;;;;;;5.88;2.90;;;3.40;99.90;;;;;;5019143;28;20042;-65
2024/01/05 01:03:57;;;;;;;7.95;3.50;;;3.30;99.90;;;;;;5020613;28;20077;-65
2024/01/05 01:06:29;;;;;;;14.90;5.57;;;3.30;99.90;;;;;;5027210;28;20153;-66
2024/01/05 01:09:00;;;;;;;21.35;9.77;;;3.30;99.90;;;;;;5023244;28;20544;-65
2024/01/05 01:11:32;;;;;;;13.15;7.15;;;3.30;99.90;;;;;;5019443;28;20049;-66
2024/01/05 01:14:04;;;;;;;16.02;7.18;;;3.20;99.90;;;;;;5013104;28;20120;-65
2024/01/05 01:16:36;;;;;;;10.85;6.05;;;3.20;99.90;;;;;;5021682;28;20045;-65
2024/01/05 01:19:08;;;;;;;9.98;3.50;;;3.10;99.90;;;;;;5011816;28;20045;-66
2024/01/05 01:21:39;;;;;;;7.13;3.10;;;3.10;99.90;;;;;;5020377;28;20131;-66
2024/01/05 01:24:11;;;;;;;3.88;1.88;;;3.00;99.90;;;;;;5022381;28;20076;-66
2024/01/05 01:26:43;;;;;;;3.92;1.50;;;3.00;99.90;;;;;;5017350;28;20421;-65
2024/01/05 01:29:15;;;;;;;4.03;2.03;;;3.00;99.90;;;;;;5020000;28;20059;-66
2024/01/05 01:31:47;;;;;;;2.95;1.40;;;3.00;99.90;;;;;;5022115;28;20046;-65
2024/01/05 01:34:19;;;;;;;5.05;1.73;;;2.90;99.90;;;;;;5018046;28;20125;-65
2024/01/05 01:36:46;;;;;;;3.15;1.98;;;2.90;99.90;;;;;;5018466;28;20037;-65
2024/01/05 01:39:17;;;;;;;2.05;1.20;;;2.90;99.90;;;;;;5024118;28;20034;-65
2024/01/05 01:41:49;;;;;;;3.80;1.70;;;2.90;99.90;;;;;;5014454;28;20481;-65
2024/01/05 01:44:21;;;;;;;3.13;1.50;;;2.90;99.90;;;;;;5017567;28;20144;-66
2024/01/05 01:46:56;;;;;;;3.13;1.50;;;2.90;99.90;;;;;;5012326;28;20046;-65
2024/01/05 01:49:28;;;;;;;2.92;1.00;;;2.90;99.90;;;;;;5015584;28;20444;-65
2024/01/05 01:52:00;;;;;;;2.67;1.23;;;2.90;99.90;;;;;;5020945;28;20578;-65
2024/01/05 01:54:33;;;;;;;2.63;1.40;;;3.00;99.90;;;;;;5039106;28;20120;-65
2024/01/05 01:57:05;;;;;;;4.80;1.38;;;3.00;99.90;;;;;;5018816;28;20414;-65
2024/01/05 01:59:37;;;;;;;5.75;1.58;;;3.00;99.90;;;;;;5021708;28;20042;-65
2024/01/05 02:02:04;;;;;;;4.57;2.13;;;3.00;99.90;;;;;;5020909;28;20042;-65
2024/01/05 02:04:37;;;;;;;4.38;1.55;;;3.00;99.90;;;;;;5018915;28;20042;-65
2024/01/05 02:07:10;;;;;;;3.60;1.60;;;3.00;99.90;;;;;;5015442;28;20124;-65
2024/01/05 02:09:42;;;;;;;4.17;1.80;;;3.00;99.90;;;;;;5013690;28;20045;-65
2024/01/05 02:12:14;;;;;;;5.53;2.10;;;3.00;99.90;;;;;;5017321;28;20050;-65
2024/01/05 02:14:45;;;;;;;4.95;2.22;;;2.90;99.90;;;;;;5012551;28;20050;-65
2024/01/05 02:17:33;;;;;;;5.90;2.28;;;2.90;99.90;;;;;;5014462;28;20045;-65
2024/01/05 02:20:10;;;;;;;6.03;2.33;;;2.80;99.90;;;;;;5016256;28;20502;-65
2024/01/05 02:22:51;;;;;;;3.70;2.40;;;2.80;99.90;;;;;;5026403;28;20052;-65
2024/01/05 02:25:23;;;;;;;4.40;2.50;;;2.70;99.90;;;;;;5020312;28;20049;-65
2024/01/05 02:27:55;;;;;;;4.32;2.83;;;2.60;99.90;;;;;;5018490;28;20056;-65
2024/01/05 02:30:27;;;;;;;2.30;1.42;;;2.60;99.90;;;;;;5019179;28;20056;-65
2024/01/05 02:32:59;;;;;;;3.70;2.33;;;2.50;99.90;;;;;;5033377;28;20053;-65
2024/01/05 02:35:25;;;;;;;7.65;2.70;;;2.40;99.90;;;;;;5013668;28;20120;-65
2024/01/05 02:37:57;;;;;;;9.80;3.17;;;2.40;99.90;;;;;;5022392;28;20096;-65
2024/01/05 02:40:29;;;;;;;6.78;3.22;;;2.40;99.90;;;;;;5018957;28;20033;-65
2024/01/05 02:43:01;;;;;;;9.25;3.65;;;2.40;99.90;;;;;;5013539;28;20057;-66
2024/01/05 02:45:35;;;;;;;5.53;2.78;;;2.40;99.90;;;;;;5018154;28;20049;-65
2024/01/05 02:48:07;;;;;;;6.40;2.70;;;2.40;99.90;;;;;;5019003;28;20427;-65
2024/01/05 02:50:39;;;;;;;5.32;3.25;;;2.40;99.90;;;;;;5019029;28;20038;-65
2024/01/05 02:53:05;;;;;;;4.57;2.83;;;2.30;99.90;;;;;;5018977;28;20140;-65
2024/01/05 02:55:37;;;;;;;5.47;2.55;;;2.30;99.90;;;;;;5019069;28;20120;-65
2024/01/05 02:58:09;;;;;;;5.70;2.78;;;2.30;99.90;;;;;;5017994;28;20060;-65
2024/01/05 03:00:41;;;;;;;4.00;2.55;;;2.20;99.90;;;;;;5013171;28;20057;-65
2024/01/05 03:03:13;;;;;;;6.53;2.83;;;2.20;99.90;;;;;;5011871;28;20038;-65
2024/01/05 03:05:44;;;;;;;4.30;2.95;;;2.20;99.90;;;;;;5010958;28;20048;-65
2024/01/05 03:08:16;;;;;;;7.65;4.13;;;2.20;99.90;;;;;;5011733;28;20810;-65
2024/01/05 03:10:48;;;;;;;6.07;2.58;;;2.20;99.90;;;;;;5022465;28;20038;-65
2024/01/05 03:13:20;;;;;;;6.32;3.03;;;2.20;99.90;;;;;;5008223;28;20422;-65
2024/01/05 03:15:53;;;;;;;6.72;2.63;;;2.20;99.90;;;;;;5018786;28;20048;-65
2024/01/05 03:18:25;;;;;;;5.93;2.63;;;2.20;99.90;;;;;;5018657;28;20037;-66
2024/01/05 03:20:57;;;;;;;7.00;2.80;;;2.20;99.90;;;;;;5024659;28;20046;-65
2024/01/05 03:23:28;;;;;;;6.15;2.75;;;2.20;99.90;;;;;;5016358;28;20525;-65
2024/01/05 03:25:56;;;;;;;7.75;2.92;;;2.20;99.90;;;;;;5014446;28;20480;-65
2024/01/05 03:28:28;;;;;;;4.13;2.75;;;2.10;99.90;;;;;;5012519;28;20053;-65
2024/01/05 03:31:00;;;;;;;5.00;2.28;;;2.00;99.90;;;;;;5021141;28;20054;-65
2024/01/05 03:33:32;;;;;;;4.57;2.50;;;2.00;99.90;;;;;;5014313;28;20056;-65
2024/01/05 03:35:59;;;;;;;5.20;2.47;;;2.00;99.90;;;;;;5017815;28;20406;-65
2024/01/05 03:38:26;;;;;;;3.55;2.15;;;2.10;99.90;;;;;;5014388;28;20037;-65
2024/01/05 03:40:53;;;;;;;3.63;2.05;;;2.10;99.90;;;;;;5020419;28;20049;-65
2024/01/05 03:43:25;;;;;;;4.93;2.42;;;2.00;99.90;;;;;;5014683;28;20064;-65
2024/01/05 03:45:56;;;;;;;5.78;2.50;;;2.10;99.90;;;;;;5018241;28;20065;-65
2024/01/05 03:48:28;;;;;;;3.85;2.20;;;2.10;99.90;;;;;;5016578;28;20049;-65
2024/01/05 03:51:00;;;;;;;13.30;5.57;;;2.10;99.90;;;;;;5009072;28;20083;-65
2024/01/05 03:53:32;;;;;;;9.13;4.18;;;2.10;99.90;;;;;;5013088;28;20052;-65
2024/01/05 03:56:04;;;;;;;7.60;3.95;;;2.20;99.90;;;;;;5013207;28;20518;-65
2024/01/05 03:58:36;;;;;;;8.63;3.47;;;2.20;99.90;;;;;;5008563;28;20060;-65
2024/01/05 04:01:08;;;;;;;6.10;2.60;;;2.20;99.90;;;;;;5014608;28;20046;-65
2024/01/05 04:03:34;;;;;;;4.75;1.92;;;2.20;99.90;;;;;;5015397;28;20045;-65
2024/01/05 04:06:06;;;;;;;4.55;1.88;;;2.30;99.90;;;;;;5023061;28;20064;-65
2024/01/05 04:08:38;;;;;;;2.45;1.50;;;2.20;99.90;;;;;;5018292;28;20069;-65
2024/01/05 04:11:20;;;;;;;2.97;1.50;;;2.20;99.90;;;;;;5018051;28;20096;-65
2024/01/05 04:13:52;;;;;;;3.58;1.77;;;2.20;99.90;;;;;;5019250;28;20565;-66
2024/01/05 04:16:24;;;;;;;5.72;1.88;;;2.20;99.90;;;;;;5017103;28;20042;-65
2024/01/05 04:18:56;;;;;;;3.53;1.60;;;2.20;99.90;;;;;;5021893;28;20842;-65
2024/01/05 04:21:22;;;;;;;5.50;1.80;;;2.20;99.90;;;;;;5024647;28;20060;-65
2024/01/05 04:23:55;;;;;;;3.40;1.40;;;2.20;99.90;;;;;;5016271;28;20057;-65
2024/01/05 04:26:27;;;;;;;1.98;1.30;;;2.10;99.90;;;;;;5017586;28;20061;-65
2024/01/05 04:28:59;;;;;;;5.03;1.80;;;2.20;99.90;;;;;;5024178;28;20048;-65
2024/01/05 04:31:31;;;;;;;4.97;1.88;;;2.20;99.90;;;;;;5021272;28;20080;-66
2024/01/05 04:34:03;;;;;;;6.07;2.15;;;2.20;99.90;;;;;;5025560;28;20496;-65
2024/01/05 04:36:35;;;;;;;5.28;2.42;;;2.20;99.90;;;;;;5025358;28;20040;-65
2024/01/05 04:39:06;;;;;;;4.68;1.95;;;2.10;99.90;;;;;;5025523;28;20049;-65
2024/01/05 04:41:38;;;;;;;7.55;2.10;;;2.10;99.90;;;;;;5023745;28;20049;-65
2024/01/05 04:44:10;;;;;;;2.88;2.10;;;2.00;99.90;;;;;;5029436;28;20059;-65
2024/01/05 04:46:42;;;;;;;4.57;1.98;;;2.00;99.90;;;;;;5025545;28;20038;-65
2024/01/05 04:49:14;;;;;;;3.92;2.25;;;2.00;99.90;;;;;;5016190;28;20133;-65
2024/01/05 04:51:40;;;;;;;5.07;1.77;;;2.00;99.90;;;;;;5016727;28;20056;-66
2024/01/05 04:54:12;;;;;;;3.30;2.47;;;2.10;99.90;;;;;;5018206;28;20041;-65
2024/01/05 04:56:44;;;;;;;4.68;1.92;;;2.10;99.90;;;;;;5022960;28;20453;-65
2024/01/05 04:59:16;;;;;;;4.03;2.42;;;2.10;99.90;;;;;;5026440;28;20049;-65
2024/01/05 05:01:48;;;;;;;5.20;1.73;;;2.10;99.90;;;;;;5025332;28;20046;-65
2024/01/05 05:04:20;;;;;;;2.92;1.50;;;2.20;99.90;;;;;;5023057;28;20129;-65
2024/01/05 05:06:53;;;;;;;4.15;1.67;;;2.30;99.90;;;;;;5022633;28;20502;-65
2024/01/05 05:09:20;;;;;;;4.03;1.80;;;2.20;99.90;;;;;;5026578;28;20072;-65
2024/01/05 05:11:52;;;;;;;3.40;2.03;;;2.20;99.90;;;;;;5034593;28;20418;-65
2024/01/05 05:14:23;;;;;;;3.15;1.90;;;2.30;99.90;;;;;;5028870;28;20108;-65
2024/01/05 05:16:55;;;;;;;4.30;2.33;;;2.30;99.90;;;;;;5020147;28;20584;-65
2024/01/05 05:19:27;;;;;;;4.75;2.58;;;2.30;99.90;;;;;;5017003;28;20034;-65
2024/01/05 05:21:59;;;;;;;7.60;3.17;;;2.30;99.90;;;;;;5032047;28;20421;-65
2024/01/05 05:24:31;;;;;;;5.60;3.03;;;2.40;99.90;;;;;;5029165;28;20050;-65
2024/01/05 05:27:03;;;;;;;24.25;9.65;;;2.40;99.90;;;;;;5014688;28;20421;-65
2024/01/05 05:29:35;;;;;;;22.92;14.05;;;2.40;99.90;;;;;;5026623;28;20623;-65
2024/01/05 05:32:07;;;;;;;16.55;8.43;;;2.40;99.90;;;;;;5025356;28;20046;-65
2024/01/05 05:34:40;;;;;;;7.70;3.85;;;2.30;99.90;;;;;;5019672;28;20037;-65
2024/01/05 05:37:12;;;;;;;5.97;4.10;;;2.30;99.90;;;;;;5018312;28;20482;-65
2024/01/05 05:39:44;;;;;;;7.57;3.70;;;2.30;99.90;;;;;;5024719;28;20045;-65
2024/01/05 05:42:16;;;;;;;8.10;3.55;;;2.20;99.90;;;;;;5022677;28;20810;-65
2024/01/05 05:44:47;;;;;;;5.28;3.80;;;2.20;99.90;;;;;;5027795;28;20044;-65
2024/01/05 05:47:19;;;;;;;5.82;3.40;;;2.20;99.90;;;;;;5020149;28;20510;-65
2024/01/05 05:49:51;;;;;;;4.78;3.08;;;2.20;99.90;;;;;;5017184;28;20046;-65
2024/01/05 05:52:23;;;;;;;8.00;2.85;;;2.10;99.90;;;;;;5021809;28;20038;-65
2024/01/05 05:54:54;;;;;;;7.95;3.15;;;2.10;99.90;;;;;;5021081;28;20042;-65
2024/01/05 05:57:26;;;;;;;3.15;1.90;;;2.20;99.90;;;;;;5026133;28;20675;-65
2024/01/05 05:59:59;;;;;;;2.42;1.50;;;2.20;99.90;;;;;;5018812;28;20069;-65
2024/01/05 06:02:30;;;;;;;2.78;0.98;;;2.30;99.90;;;;;;5022102;28;20055;-65
2024/01/05 06:05:03;;;;;;;1.67;0.93;;;2.30;99.90;;;;;;5015446;28;20048;-65
2024/01/05 06:07:35;;;;;;;2.90;1.00;;;2.50;99.90;;;;;;5013311;28;20053;-65
2024/01/05 06:10:08;;;;;;;3.45;1.27;;;2.60;99.90;;;;;;5012335;28;20162;-65
2024/01/05 06:12:40;;;;;;;2.10;1.02;;;2.70;99.90;;;;;;5014935;28;20052;-65
2024/01/05 06:15:12;;;;;;;7.00;1.40;;;2.80;99.90;;;;;;5017692;28;20383;-65
2024/01/05 06:17:43;;;;;;;3.70;1.38;;;2.80;99.90;;;;;;5022798;28;20042;-65
2024/01/05 06:20:15;;;;;;;3.10;1.38;;;2.80;99.90;;;;;;5019396;28;20049;-65
2024/01/05 06:22:47;;;;;;;2.08;1.38;;;2.90;99.90;;;;;;5021331;28;20041;-65
2024/01/05 06:25:19;;;;;;;2.75;1.45;;;3.00;99.90;;;;;;5019771;28;20045;-65
2024/01/05 06:27:51;;;;;;;2.70;1.25;;;3.00;99.90;;;;;;5020888;28;20046;-65
2024/01/05 06:30:22;;;;;;;3.05;1.30;;;3.10;99.90;;;;;;5016359;28;20041;-65
2024/01/05 06:32:54;;;;;;;3.65;1.20;;;3.10;99.90;;;;;;5019089;28;20054;-65
2024/01/05 06:35:26;;;;;;;2.33;1.20;;;3.20;99.90;;;;;;5012321;28;20049;-66
2024/01/05 06:37:58;;;;;;;2.70;1.20;;;3.20;99.90;;;;;;5012392;28;20042;-65
2024/01/05 06:40:25;;;;;;;4.55;1.67;;;3.20;99.90;;;;;;5019577;28;20069;-65
2024/01/05 06:42:57;;;;;;;9.88;3.00;;;3.20;99.90;;;;;;5019206;28;20053;-66
2024/01/05 06:45:29;;;;;;;12.82;3.15;;;3.20;99.90;;;;;;5016267;28;20066;-65
2024/01/05 06:48:01;;;;;;;7.32;2.92;;;3.10;99.90;;;;;;5019478;28;20525;-65
2024/01/05 06:50:32;;;;;;;6.32;2.83;;;3.00;99.90;;;;;;5021834;28;20038;-65
2024/01/05 06:53:06;;;;;;;5.72;3.08;;;2.80;99.90;;;;;;5016172;28;20041;-65
2024/01/05 06:55:38;;;;;;;2.53;1.85;;;2.80;99.90;;;;;;5017941;28;20051;-65
2024/01/05 06:58:10;;;;;;;2.90;1.90;;;2.80;99.90;;;;;;5016023;28;20057;-65
2024/01/05 07:00:42;;;;;;;2.10;0.90;;;2.80;99.90;;;;;;5012223;28;20038;-65
2024/01/05 07:03:09;;;;;;;4.20;1.35;;;2.90;99.90;;;;;;5011516;28;20128;-65
2024/01/05 07:05:41;;;;;;;1.20;0.82;;;2.90;99.90;;;;;;5011739;28;20037;-65
2024/01/05 07:08:07;;;;;;;1.67;0.95;;;3.00;99.90;;;;;;5014909;28;20041;-65
2024/01/05 07:10:39;;;;;;;2.72;1.15;;;3.00;99.90;;;;;;5026210;28;20096;-66
2024/01/05 07:13:11;;;;;;;3.65;1.10;;;3.10;99.90;;;;;;5018630;28;20045;-65
2024/01/05 07:15:44;;;;;;;2.78;1.00;;;3.10;99.90;;;;;;5020447;28;20056;-66
2024/01/05 07:18:15;;;;;;;3.08;1.58;;;3.20;99.90;;;;;;5017335;28;20041;-65
2024/01/05 07:20:47;;;;;;;4.35;1.98;;;3.20;99.90;;;;;;5021477;28;20043;-65
2024/01/05 07:23:19;;;;;;;3.10;1.50;;;3.20;99.90;;;;;;5014708;28;20045;-65
2024/01/05 07:25:51;;;;;;;3.28;1.40;;;3.20;99.90;;;;;;5015823;28;20665;-65
2024/01/05 07:28:22;;;;;;;4.45;1.50;;;3.20;99.90;;;;;;5017311;28;20108;-66
2024/01/05 07:30:49;;;;;;;5.55;1.80;;;3.20;99.90;;;;;;5013803;28;20052;-65
2024/01/05 07:33:21;;;;;;;26.08;14.65;;;3.20;99.90;;;;;;5014619;28;20045;-65
2024/01/05 07:35:53;;;;;;;16.08;8.88;;;3.20;99.90;;;;;;5024097;28;20838;-66
2024/01/05 07:38:20;;;;;;;15.82;7.18;;;3.10;99.90;;;;;;5016575;28;20092;-65
2024/01/05 07:40:52;;;;;;;12.73;5.93;;;3.00;99.90;;;;;;5019281;28;20060;-65
2024/01/05 07:43:25;;;;;;;59.78;23.92;;;3.00;99.90;;;;;;5019690;28;20052;-65
2024/01/05 07:45:52;;;;;;;56.75;24.58;;;3.00;99.90;;;;;;5026065;28;20053;-65
2024/01/05 07:48:24;;;;;;;55.35;22.52;;;3.00;99.90;;;;;;5008648;28;20042;-65
2024/01/05 07:50:56;;;;;;;32.53;14.85;;;3.00;99.90;;;;;;5017577;28;20041;-66
2024/01/05 07:53:28;;;;;;;21.45;10.77;;;2.90;99.90;;;;;;5031241;28;20033;-65
2024/01/05 07:55:58;;;;;;;25.02;12.05;;;2.90;99.90;;;;;;5010713;28;20060;-65
2024/01/05 07:58:30;;;;;;;25.67;13.30;;;2.90;99.90;;;;;;5011847;28;20046;-65
2024/01/05 08:01:02;;;;;;;23.27;11.43;;;2.90;99.90;;;;;;5017817;28;20498;-65
2024/01/05 08:03:29;;;;;;;21.23;11.18;;;2.90;99.90;;;;;;5026068;28;20106;-66
2024/01/05 08:06:01;;;;;;;16.73;9.27;;;2.90;99.90;;;;;;5019041;28;20049;-65
2024/01/05 08:08:32;;;;;;;15.07;8.63;;;3.00;99.90;;;;;;5020735;28;20046;-65
2024/01/05 08:11:04;;;;;;;11.90;6.43;;;3.00;99.90;;;;;;5020622;28;20115;-65
2024/01/05 08:13:36;;;;;;;8.85;4.97;;;3.00;99.90;;;;;;5022484;28;20143;-65
2024/01/05 08:16:08;;;;;;;7.68;3.45;;;3.00;99.90;;;;;;5020741;28;20053;-66
2024/01/05 08:18:41;;;;;;;5.30;3.20;;;3.00;99.90;;;;;;5017664;28;20034;-65
2024/01/05 08:21:13;;;;;;;3.85;3.00;;;3.00;99.90;;;;;;5017985;28;20048;-64
2024/01/05 08:23:46;;;;;;;4.47;2.95;;;3.00;99.90;;;;;;5015844;28;20033;-65
2024/01/05 08:26:17;;;;;;;6.63;3.78;;;3.00;99.90;;;;;;5023989;28;20044;-66
2024/01/05 08:28:49;;;;;;;5.00;2.60;;;3.10;99.90;;;;;;5019311;28;20399;-65
2024/01/05 08:31:21;;;;;;;4.88;2.67;;;3.10;99.90;;;;;;5018663;28;20062;-65
2024/01/05 08:33:53;;;;;;;3.72;2.60;;;3.10;99.90;;;;;;5019026;28;20076;-65
2024/01/05 08:36:24;;;;;;;4.47;2.97;;;3.10;99.90;;;;;;5024846;28;20056;-65
2024/01/05 08:38:56;;;;;;;7.22;1.10;;;3.10;99.90;;;;;;5026119;28;20034;-65
2024/01/05 08:41:28;;;;;;;1.98;0.82;;;3.40;99.90;;;;;;5019186;28;20046;-65
2024/01/05 08:44:00;;;;;;;2.55;1.20;;;3.80;99.90;;;;;;5016359;28;20053;-65
2024/01/05 08:46:32;;;;;;;1.88;0.95;;;4.10;99.90;;;;;;5022291;28;20045;-65
2024/01/05 08:49:04;;;;;;;4.78;1.13;;;4.30;99.90;;;;;;5019771;28;20137;-66
2024/01/05 08:51:43;;;;;;;3.25;1.25;;;4.40;99.90;;;;;;5026350;28;20589;-66
2024/01/05 08:54:15;;;;;;;6.10;2.80;;;4.50;99.90;;;;;;5021834;28;20195;-65
2024/01/05 08:56:44;;;;;;;8.48;4.95;;;4.60;99.90;;;;;;5022370;28;20505;-65
2024/01/05 08:59:16;;;;;;;33.78;15.52;;;4.60;99.90;;;;;;5022247;28;20528;-65
2024/01/05 09:01:48;;;;;;;11.38;6.32;;;4.50;99.90;;;;;;5022379;28;20030;-65
2024/01/05 09:04:20;;;;;;;4.60;2.88;;;4.60;99.90;;;;;;5013148;28;20137;-66
2024/01/05 09:06:51;;;;;;;5.57;1.85;;;4.60;99.90;;;;;;5022124;28;20060;-66
2024/01/05 09:09:23;;;;;;;4.25;1.48;;;4.70;99.90;;;;;;5019042;28;20140;-66
2024/01/05 09:11:55;;;;;;;5.20;1.60;;;4.80;99.90;;;;;;5017390;28;20069;-65
2024/01/05 09:14:27;;;;;;;3.03;1.67;;;4.90;99.90;;;;;;5028082;28;20060;-66
2024/01/05 09:16:58;;;;;;;4.57;1.88;;;5.00;99.90;;;;;;5028712;28;20057;-65
2024/01/05 09:19:30;;;;;;;5.30;1.77;;;5.10;99.90;;;;;;5021163;28;20050;-65
2024/01/05 09:22:02;;;;;;;5.90;2.47;;;5.20;99.90;;;;;;5020720;28;20061;-65
2024/01/05 09:24:36;;;;;;;3.05;1.58;;;5.20;99.90;;;;;;5021725;28;20056;-65
2024/01/05 09:27:07;;;;;;;1.77;1.27;;;5.30;99.90;;;;;;5035217;28;20054;-66
2024/01/05 09:29:40;;;;;;;2.67;1.55;;;5.40;99.90;;;;;;5027435;28;20045;-65
2024/01/05 09:32:12;;;;;;;5.80;2.55;;;5.50;99.90;;;;;;5025342;28;20791;-65
2024/01/05 09:34:43;;;;;;;12.52;4.88;;;5.50;99.90;;;;;;5021625;28;20048;-65
2024/01/05 09:37:15;;;;;;;4.15;2.15;;;5.50;99.90;;;;;;5019727;28;20041;-66
2024/01/05 09:39:47;;;;;;;8.45;2.83;;;5.40;99.90;;;;;;5024174;28;20069;-65
2024/01/05 09:42:19;;;;;;;4.50;3.00;;;5.40;99.90;;;;;;5023481;28;20393;-65
2024/01/05 09:44:52;;;;;;;5.88;4.40;;;5.30;99.90;;;;;;5022682;28;20054;-65
2024/01/05 09:47:24;;;;;;;;;;;5.30;99.90;;;;;;5025947;28;20037;-65
2024/01/05 09:50:00;;;;;;;4.55;3.03;;;5.20;99.90;;;;;;5027181;28;20418;-65
2024/01/05 09:52:32;;;;;;;12.77;6.53;;;5.20;99.90;;;;;;5021559;28;20104;-65
2024/01/05 09:55:04;;;;;;;9.15;6.03;;;5.20;99.90;;;;;;5023949;28;20500;-65
2024/01/05 09:57:32;;;;;;;5.20;3.30;;;5.20;99.90;;;;;;5026704;28;20050;-66
2024/01/05 10:00:04;;;;;;;4.95;3.30;;;5.20;99.90;;;;;;5026682;28;20084;-65
2024/01/05 10:02:43;;;;;;;11.35;7.07;;;5.20;99.90;;;;;;5024056;28;20044;-65
2024/01/05 10:05:15;;;;;;;16.70;9.95;;;5.10;99.90;;;;;;5018735;28;20428;-65
2024/01/05 10:07:43;;;;;;;15.75;7.47;;;5.20;99.90;;;;;;5019538;28;20056;-65
2024/01/05 10:10:15;;;;;;;9.98;4.95;;;5.20;99.90;;;;;;5028921;28;20054;-66
2024/01/05 10:12:47;;;;;;;12.10;5.40;;;5.20;99.90;;;;;;5020320;28;20502;-65
2024/01/05 10:15:19;;;;;;;12.90;6.18;;;5.30;99.90;;;;;;5027236;28;20144;-65
2024/01/05 10:17:51;;;;;;;11.93;6.45;;;5.30;99.90;;;;;;5020979;28;20917;-65
2024/01/05 10:20:26;;;;;;;17.77;7.43;;;5.40;99.90;;;;;;5011365;28;20505;-65
2024/01/05 10:23:03;;;;;;;14.07;6.93;;;5.40;99.90;;;;;;5024009;28;20034;-66
2024/01/05 10:25:38;;;;;;;12.05;6.68;;;5.50;99.90;;;;;;5022352;28;20425;-66
2024/01/05 10:28:23;;;;;;;66.40;27.98;;;5.50;99.90;;;;;;5026812;28;20038;-65
2024/01/05 10:31:10;;;;;;;22.15;12.15;;;5.60;99.90;;;;;;5020350;28;20079;-65
2024/01/05 10:33:53;;;;;;;14.00;7.68;;;5.60;99.90;;;;;;5022124;28;20137;-65
2024/01/05 10:36:26;;;;;;;15.18;9.52;;;5.60;99.90;;;;;;5022382;28;20064;-65
2024/01/05 10:38:58;;;;;;;;;;;5.70;99.90;;;;;;5022233;28;20049;-65
2024/01/05 10:41:30;;;;;;;12.70;7.93;;;5.70;99.90;;;;;;5025207;28;19921;-65
2024/01/05 10:44:04;;;;;;;17.95;9.32;;;5.70;99.90;;;;;;5025831;28;20037;-65
2024/01/05 10:46:32;;;;;;;42.17;23.98;;;5.70;99.90;;;;;;5023034;28;20038;-65
2024/01/05 10:49:04;;;;;;;14.93;8.68;;;5.80;99.90;;;;;;5028164;28;20037;-65
2024/01/05 10:51:36;;;;;;;20.83;9.18;;;5.80;99.90;;;;;;5027472;28;20057;-65
2024/01/05 10:54:03;;;;;;;24.77;11.07;;;5.80;99.90;;;;;;5019066;28;20038;-65
2024/01/05 10:56:38;;;;;;;10.32;5.32;;;5.80;99.90;;;;;;5012495;28;20119;-65
2024/01/05 10:59:05;;;;;;;9.25;4.78;;;5.80;99.90;;;;;;5023710;28;20037;-66
2024/01/05 11:01:32;;;;;;;7.72;4.20;;;5.90;99.90;;;;;;5019939;28;20406;-65
2024/01/05 11:04:04;;;;;;;7.03;2.90;;;5.90;99.90;;;;;;5023906;28;20064;-65
2024/01/05 11:06:37;;;;;;;4.10;1.90;;;6.00;99.90;;;;;;5024454;28;20049;-65
2024/01/05 11:09:46;;;;;;;4.80;1.38;;;6.00;99.90;;;;;;5019384;28;20056;-65
2024/01/05 11:12:23;;;;;;;3.78;1.63;;;6.20;99.90;;;;;;5021682;28;20518;-65
2024/01/05 11:15:30;;;;;;;3.13;1.33;;;6.40;99.90;;;;;;5009933;28;20450;-65
2024/01/05 11:18:27;;;;;;;3.38;1.35;;;6.50;99.90;;;;;;5023141;28;20187;-65
2024/01/05 11:21:13;;;;;;;3.40;1.33;;;6.70;99.90;;;;;;5025160;28;20042;-65
2024/01/05 11:23:47;;;;;;;3.00;1.13;;;6.90;99.90;;;;;;5013081;28;20415;-65
2024/01/05 11:26:32;;;;;;;5.43;1.50;;;6.90;99.90;;;;;;5013145;28;20099;-65
2024/01/05 11:29:04;;;;;;;5.85;2.10;;;7.00;99.90;;;;;;5020068;28;20049;-65
2024/01/05 11:31:45;;;;;;;9.30;3.38;;;7.00;99.90;;;;;;5021782;28;20041;-66
2024/01/05 11:34:39;;;;;;;9.57;4.60;;;7.00;99.90;;;;;;5021586;28;20095;-65
2024/01/05 11:37:11;;;;;;;11.30;5.20;;;7.00;99.90;;;;;;5025494;28;20041;-65
2024/01/05 11:39:47;;;;;;;13.30;5.40;;;7.00;99.90;;;;;;5029517;28;20055;-65
2024/01/05 11:42:25;;;;;;;7.88;4.78;;;7.00;99.90;;;;;;5027142;28;20069;-65
2024/01/05 11:44:58;;;;;;;8.27;4.20;;;7.00;99.90;;;;;;5022517;28;20050;-65
2024/01/05 11:47:44;;;;;;;8.05;4.05;;;7.00;99.90;;;;;;5022895;28;20497;-65
2024/01/05 11:50:31;;;;;;;6.95;4.40;;;7.00;99.90;;;;;;5022188;28;20668;-65
2024/01/05 11:53:17;;;;;;;4.93;2.90;;;6.90;99.90;;;;;;5018666;28;20553;-65
2024/01/05 11:55:56;;;;;;;4.32;2.95;;;7.00;99.90;;;;;;5021138;28;20052;-65
2024/01/05 11:58:35;;;;;;;8.80;3.00;;;7.00;99.90;;;;;;5026538;28;20041;-65
2024/01/05 12:01:12;;;;;;;6.97;3.63;;;7.00;99.90;;;;;;5023918;28;20041;-65
2024/01/05 12:03:44;;;;;;;10.25;4.78;;;6.90;99.90;;;;;;5024666;28;20033;-66
2024/01/05 12:06:16;;;;;;;4.72;3.50;;;6.90;99.90;;;;;;5023190;28;20476;-65
2024/01/05 12:08:49;;;;;;;7.18;3.00;;;6.90;99.90;;;;;;5022198;28;20518;-65
2024/01/05 12:11:20;;;;;;;6.40;3.10;;;7.00;99.90;;;;;;5017297;28;20046;-66
2024/01/05 12:13:52;;;;;;;4.18;2.85;;;7.00;99.90;;;;;;5014965;28;20134;-65
2024/01/05 12:16:24;;;;;;;7.75;2.83;;;7.00;99.90;;;;;;5008463;28;20519;-65
2024/01/05 12:18:56;;;;;;;3.88;2.60;;;7.00;99.90;;;;;;5012485;28;20382;-65
2024/01/05 12:21:28;;;;;;;5.20;2.50;;;7.00;99.90;;;;;;5021329;28;20132;-65
2024/01/05 12:24:02;;;;;;;8.27;3.72;;;7.00;99.90;;;;;;5028990;28;20042;-65
2024/01/05 12:26:34;;;;;;;8.07;3.40;;;7.00;99.90;;;;;;5018235;28;20045;-65
2024/01/05 12:29:08;;;;;;;5.07;2.05;;;7.10;99.90;;;;;;5018675;28;20045;-65
2024/01/05 12:31:36;;;;;;;5.72;1.25;;;7.00;99.90;;;;;;5022643;28;20514;-65
2024/01/05 12:34:08;;;;;;;4.75;2.63;;;7.00;99.90;;;;;;5013770;28;20037;-65
2024/01/05 12:36:40;;;;;;;7.97;3.13;;;7.00;99.90;;;;;;5014640;28;20065;-65
2024/01/05 12:39:12;;;;;;;4.70;3.03;;;7.00;99.90;;;;;;5020178;28;20064;-65
2024/01/05 12:41:47;;;;;;;5.20;3.42;;;7.00;99.90;;;;;;5012894;28;20030;-65
2024/01/05 12:44:19;;;;;;;9.70;6.40;;;7.00;99.90;;;;;;5015123;28;20052;-65
2024/01/05 12:46:46;;;;;;;9.63;6.07;;;7.10;99.90;;;;;;5021662;28;20129;-65
2024/01/05 12:49:23;;;;;;;12.50;8.20;;;7.10;99.90;;;;;;5026098;28;20100;-65
2024/01/05 12:51:56;;;;;;;22.98;11.73;;;7.10;99.90;;;;;;5021411;28;20128;-65
2024/01/05 12:54:41;;;;;;;20.53;11.03;;;7.10;99.90;;;;;;5024520;28;20045;-65
2024/01/05 12:57:20;;;;;;;20.85;11.98;;;7.10;99.90;;;;;;5026320;28;20409;-66
2024/01/05 12:59:47;;;;;;;15.45;10.48;;;7.10;99.90;;;;;;5024336;28;20030;-65
2024/01/05 13:02:19;;;;;;;18.35;8.73;;;7.10;99.90;;;;;;5019078;28;20061;-65
2024/01/05 13:04:50;;;;;;;21.85;11.57;;;7.10;99.90;;;;;;5022794;28;20525;-65
2024/01/05 13:07:22;;;;;;;16.35;10.27;;;7.10;99.90;;;;;;5017770;28;20424;-65
2024/01/05 13:09:54;;;;;;;7.35;4.82;;;7.10;99.90;;;;;;5023416;28;20046;-65
2024/01/05 13:12:26;;;;;;;9.88;4.90;;;7.00;99.90;;;;;;5013543;28;20415;-65
2024/01/05 13:14:57;;;;;;;6.63;3.92;;;7.00;99.90;;;;;;5029313;28;20053;-66
2024/01/05 13:17:24;;;;;;;5.85;2.35;;;7.00;99.90;;;;;;5023271;28;20120;-65
2024/01/05 13:19:56;;;;;;;5.55;1.80;;;7.00;99.90;;;;;;5020560;28;20042;-65
2024/01/05 13:22:28;;;;;;;4.13;1.40;;;7.00;99.90;;;;;;5022076;28;20038;-65